createdAt,value
2022-08-09T00:01:48.323Z,37.60
2022-08-09T00:04:34.724Z,37.70
2022-08-09T00:07:10.723Z,37.90
2022-08-09T00:09:38.359Z,38.00
2022-08-09T00:12:06.062Z,38.10
2022-08-09T00:14:37.994Z,38.20
2022-08-09T00:17:05.756Z,38.20
2022-08-09T00:19:34.216Z,38.20
2022-08-09T00:22:03.690Z,38.30
2022-08-09T00:24:32.134Z,38.20
2022-08-09T00:27:00.846Z,38.30
2022-08-09T00:30:16.209Z,38.40
2022-08-09T00:32:25.503Z,38.50
2022-08-09T00:34:56.350Z,38.70
2022-08-09T00:37:24.063Z,38.90
2022-08-09T00:40:13.094Z,38.70
2022-08-09T00:44:15.308Z,38.80
2022-08-09T00:45:26.823Z,38.90
2022-08-09T00:47:55.435Z,38.90
2022-08-09T00:50:23.725Z,38.90
2022-08-09T00:52:52.593Z,39.10
2022-08-09T00:56:02.947Z,39.30
2022-08-09T00:58:09.043Z,39.20
2022-08-09T01:00:40.672Z,39.30
2022-08-09T01:03:46.602Z,39.20
2022-08-09T01:06:54.207Z,39.40
2022-08-09T01:09:36.674Z,39.60
2022-08-09T01:12:27.149Z,39.60
2022-08-09T01:15:17.033Z,39.70
2022-08-09T01:18:08.476Z,39.60
2022-08-09T01:20:50.157Z,39.70
2022-08-09T01:24:12.253Z,39.80
2022-08-09T01:26:46.300Z,40.00
2022-08-09T01:29:28.062Z,40.00
2022-08-09T01:32:30.835Z,40.10
2022-08-09T01:34:47.113Z,40.70
2022-08-09T01:37:21.836Z,40.30
2022-08-09T01:40:09.276Z,40.60
2022-08-09T01:42:39.241Z,40.70
2022-08-09T01:45:07.693Z,40.60
2022-08-09T01:47:44.597Z,40.70
2022-08-09T01:50:13.641Z,40.80
2022-08-09T01:52:44.944Z,40.80
2022-08-09T01:55:13.433Z,40.80
2022-08-09T01:57:46.223Z,40.80
2022-08-09T02:00:35.517Z,40.90
2022-08-09T02:03:06.649Z,40.90
2022-08-09T02:05:53.377Z,40.90
2022-08-09T02:08:39.296Z,40.90
2022-08-09T02:11:17.287Z,41.10
2022-08-09T02:14:06.418Z,41.20
2022-08-09T02:17:00.080Z,41.40
2022-08-09T02:19:25.070Z,41.50
2022-08-09T02:22:31.559Z,41.50
2022-08-09T02:25:07.801Z,41.50
2022-08-09T02:27:57.990Z,41.60
2022-08-09T02:30:29.288Z,41.70
2022-08-09T02:32:59.396Z,41.50
2022-08-09T02:36:03.110Z,41.60
2022-08-09T02:38:22.089Z,41.60
2022-08-09T02:41:01.990Z,41.80
2022-08-09T02:43:42.513Z,41.70
2022-08-09T02:46:22.793Z,41.80
2022-08-09T02:48:54.023Z,42.00
2022-08-09T02:51:23.215Z,42.20
2022-08-09T02:54:01.480Z,42.30
2022-08-09T02:56:33.333Z,42.30
2022-08-09T02:59:05.133Z,42.30
2022-08-09T03:01:43.305Z,42.50
2022-08-09T03:04:26.210Z,42.70
2022-08-09T03:06:59.630Z,42.90
2022-08-09T03:09:35.325Z,43.00
2022-08-09T03:12:13.577Z,43.10
2022-08-09T03:14:42.888Z,43.20
2022-08-09T03:17:20.405Z,43.40
2022-08-09T03:20:02.799Z,43.40
2022-08-09T03:22:41.427Z,43.40
2022-08-09T03:25:26.590Z,43.40
2022-08-09T03:28:01.505Z,43.50
2022-08-09T03:30:34.144Z,43.50
2022-08-09T03:33:16.983Z,43.70
2022-08-09T03:36:13.715Z,43.80
2022-08-09T03:38:42.070Z,43.90
2022-08-09T03:41:16.095Z,43.90
2022-08-09T03:44:03.125Z,43.90
2022-08-09T03:46:33.587Z,44.00
2022-08-09T03:49:04.350Z,43.90
2022-08-09T03:51:56.819Z,43.80
2022-08-09T03:54:31.497Z,43.90
2022-08-09T03:57:04.258Z,44.10
2022-08-09T03:59:53.884Z,44.10
2022-08-09T04:02:27.358Z,44.30
2022-08-09T04:05:06.075Z,44.30
2022-08-09T04:07:52.425Z,44.30
2022-08-09T04:10:29.239Z,45.10
2022-08-09T04:13:01.405Z,44.40
2022-08-09T04:16:17.822Z,44.40
2022-08-09T04:18:21.524Z,44.50
2022-08-09T04:20:51.566Z,44.70
2022-08-09T04:23:24.501Z,44.90
2022-08-09T04:25:53.026Z,44.80
2022-08-09T04:28:33.395Z,44.90
2022-08-09T04:31:09.442Z,44.90
2022-08-09T04:33:47.635Z,44.90
2022-08-09T04:36:25.315Z,45.00
2022-08-09T04:39:01.325Z,45.00
2022-08-09T04:41:33.304Z,45.10
2022-08-09T04:44:06.843Z,45.10
2022-08-09T04:46:58.932Z,45.30
2022-08-09T04:49:40.363Z,45.10
2022-08-09T04:52:21.894Z,45.20
2022-08-09T04:54:53.331Z,45.10
2022-08-09T04:57:24.136Z,45.00
2022-08-09T04:59:52.735Z,45.10
2022-08-09T05:02:19.726Z,45.00
2022-08-09T05:04:47.478Z,45.10
2022-08-09T05:07:19.357Z,45.10
2022-08-09T05:09:50.083Z,45.20
2022-08-09T05:12:17.808Z,45.20
2022-08-09T05:14:48.250Z,45.20
2022-08-09T05:18:37.735Z,45.10
2022-08-09T05:20:04.105Z,45.10
2022-08-09T05:22:35.761Z,45.10
2022-08-09T05:25:18.503Z,45.10
2022-08-09T05:27:47.832Z,45.10
2022-08-09T05:30:17.712Z,45.10
2022-08-09T05:32:51.009Z,45.10
2022-08-09T05:35:22.063Z,45.30
2022-08-09T05:37:51.197Z,45.30
2022-08-09T05:40:18.869Z,45.30
2022-08-09T05:42:47.004Z,45.40
2022-08-09T05:45:14.836Z,45.40
2022-08-09T05:47:52.962Z,45.30
2022-08-09T05:50:39.918Z,45.30
2022-08-09T05:53:31.606Z,45.30
2022-08-09T05:56:00.081Z,45.30
2022-08-09T05:58:30.609Z,45.10
2022-08-09T06:00:59.496Z,44.80
2022-08-09T06:03:34.760Z,44.70
2022-08-09T06:06:10.906Z,44.50
2022-08-09T06:08:39.066Z,44.40
2022-08-09T06:11:16.680Z,44.30
2022-08-09T06:13:45.843Z,44.00
2022-08-09T06:16:17.176Z,43.80
2022-08-09T06:18:44.172Z,43.60
2022-08-09T06:21:12.410Z,43.40
2022-08-09T06:23:55.354Z,43.00
2022-08-09T06:26:28.680Z,42.80
2022-08-09T06:29:00.313Z,42.50
2022-08-09T06:31:30.506Z,42.10
2022-08-09T06:33:58.820Z,41.90
2022-08-09T06:36:27.145Z,41.60
2022-08-09T06:38:57.640Z,41.40
2022-08-09T06:42:07.920Z,41.30
2022-08-09T06:44:18.019Z,41.10
2022-08-09T06:46:45.983Z,41.60
2022-08-09T06:49:22.792Z,40.70
2022-08-09T06:52:15.905Z,40.20
2022-08-09T06:54:43.728Z,39.90
2022-08-09T06:57:12.080Z,39.80
2022-08-09T07:00:49.735Z,39.80
2022-08-09T07:02:30.996Z,39.80
2022-08-09T07:05:00.236Z,39.80
2022-08-09T07:07:58.393Z,39.70
2022-08-09T07:10:29.596Z,39.40
2022-08-09T07:12:59.771Z,39.40
2022-08-09T07:16:38.506Z,39.30
2022-08-09T07:18:14.963Z,39.10
2022-08-09T07:20:43.667Z,38.70
2022-08-09T07:23:18.467Z,38.30
2022-08-09T07:25:48.080Z,38.30
2022-08-09T07:28:26.276Z,37.60
2022-08-09T07:30:55.827Z,37.00
2022-08-09T07:33:23.197Z,37.20
2022-08-09T07:35:54.110Z,37.30
2022-08-09T07:38:23.671Z,36.70
2022-08-09T07:41:12.056Z,36.40
2022-08-09T07:43:55.863Z,36.20
2022-08-09T07:46:27.797Z,36.00
2022-08-09T07:48:59.001Z,35.90
2022-08-09T07:52:05.905Z,35.70
2022-08-09T07:54:14.407Z,35.70
2022-08-09T07:56:49.085Z,35.60
2022-08-09T07:59:33.718Z,35.30
2022-08-09T08:02:02.889Z,35.20
2022-08-09T08:04:31.889Z,34.60
2022-08-09T08:07:15.155Z,34.60
2022-08-09T08:10:04.550Z,34.20
2022-08-09T08:12:35.934Z,34.00
2022-08-09T08:15:07.515Z,33.60
2022-08-09T08:17:54.009Z,33.20
2022-08-09T08:20:32.819Z,32.40
2022-08-09T08:23:06.637Z,31.40
2022-08-09T08:25:49.948Z,31.20
2022-08-09T08:28:26.191Z,31.30
2022-08-09T08:31:14.470Z,29.70
2022-08-09T08:33:49.847Z,29.00
2022-08-09T08:36:28.776Z,28.40
2022-08-09T08:38:57.261Z,28.50
2022-08-09T08:41:24.744Z,27.80
2022-08-09T08:44:10.834Z,27.00
2022-08-09T08:47:02.765Z,26.40
2022-08-09T08:49:46.835Z,25.20
2022-08-09T08:52:59.765Z,25.30
2022-08-09T08:55:23.256Z,24.30
2022-08-09T08:57:57.227Z,24.40
2022-08-09T09:00:34.183Z,24.30
2022-08-09T09:03:11.137Z,24.60
2022-08-09T09:05:58.520Z,24.50
2022-08-09T09:08:37.987Z,24.60
2022-08-09T09:11:17.435Z,23.80
2022-08-09T09:13:56.261Z,23.60
2022-08-09T09:16:32.183Z,22.90
2022-08-09T09:22:07.587Z,22.60
2022-08-09T09:24:51.576Z,22.80
2022-08-09T09:28:06.699Z,23.00
2022-08-09T09:33:16.089Z,22.60
2022-08-09T09:36:01.947Z,22.00
2022-08-09T09:38:47.017Z,21.50
2022-08-09T09:41:23.776Z,21.20
2022-08-09T09:44:12.615Z,21.20
2022-08-09T09:46:46.014Z,21.10
2022-08-09T09:49:50.020Z,21.30
2022-08-09T09:52:16.414Z,21.40
2022-08-09T09:55:27.576Z,21.70
2022-08-09T09:58:03.254Z,21.70
2022-08-09T10:00:32.421Z,21.70
2022-08-09T10:03:11.689Z,21.60
2022-08-09T10:06:01.096Z,21.60
2022-08-09T10:08:32.201Z,21.50
2022-08-09T10:11:53.681Z,21.70
2022-08-09T10:14:30.450Z,21.40
2022-08-09T10:17:24.389Z,21.50
2022-08-09T10:20:00.704Z,21.60
2022-08-09T10:22:39.080Z,21.50
2022-08-09T10:25:11.966Z,21.40
2022-08-09T10:27:56.041Z,21.50
2022-08-09T10:34:04.499Z,21.70
2022-08-09T10:36:11.492Z,21.80
2022-08-09T10:38:57.228Z,21.80
2022-08-09T10:41:27.856Z,21.90
2022-08-09T10:44:01.002Z,21.90
2022-08-09T10:48:12.099Z,21.40
2022-08-09T10:50:49.135Z,21.10
2022-08-09T10:53:23.334Z,21.20
2022-08-09T10:56:30.917Z,21.00
2022-08-09T10:59:01.618Z,20.60
2022-08-09T11:03:15.057Z,20.70
2022-08-09T11:04:31.630Z,20.80
2022-08-09T11:07:00.276Z,20.80
2022-08-09T11:09:47.688Z,20.50
2022-08-09T11:12:26.473Z,20.50
2022-08-09T11:15:01.705Z,20.30
2022-08-09T11:17:32.598Z,20.50
2022-08-09T11:20:17.945Z,20.60
2022-08-09T11:22:56.774Z,20.80
2022-08-09T11:25:45.362Z,21.20
2022-08-09T11:28:38.740Z,21.20
2022-08-09T11:31:49.402Z,21.30
2022-08-09T11:34:43.318Z,21.40
2022-08-09T11:37:18.408Z,21.40
2022-08-09T11:40:04.880Z,21.60
2022-08-09T11:42:43.467Z,21.70
2022-08-09T11:45:20.821Z,22.20
2022-08-09T11:47:50.715Z,21.90
2022-08-09T11:50:55.402Z,22.10
2022-08-09T11:54:00.550Z,22.20
2022-08-09T11:56:41.887Z,22.00
2022-08-09T11:59:30.503Z,22.90
2022-08-09T12:02:17.345Z,22.60
2022-08-09T12:04:58.151Z,22.80
2022-08-09T12:07:41.111Z,22.70
2022-08-09T12:10:31.876Z,22.90
2022-08-09T12:12:58.300Z,22.60
2022-08-09T12:15:50.465Z,22.60
2022-08-09T12:18:30.243Z,22.60
2022-08-09T12:21:02.859Z,22.40
2022-08-09T12:23:56.395Z,22.40
2022-08-09T12:26:26.070Z,22.40
2022-08-09T12:29:11.902Z,22.40
2022-08-09T12:31:59.245Z,22.70
2022-08-09T12:34:38.589Z,22.60
2022-08-09T12:37:21.489Z,22.80
2022-08-09T12:40:23.138Z,23.00
2022-08-09T12:42:54.111Z,23.00
2022-08-09T12:45:34.787Z,22.90
2022-08-09T12:48:10.671Z,22.60
2022-08-09T12:50:47.947Z,22.50
2022-08-09T12:53:38.595Z,22.20
2022-08-09T12:56:43.728Z,22.20
2022-08-09T12:59:14.300Z,22.30
2022-08-09T13:01:49.966Z,22.40
2022-08-09T13:04:36.643Z,22.50
2022-08-09T13:07:15.411Z,22.80
2022-08-09T13:09:52.828Z,22.70
2022-08-09T13:12:28.199Z,22.70
2022-08-09T13:15:04.890Z,22.90
2022-08-09T13:18:02.605Z,22.70
2022-08-09T13:24:54.004Z,22.00
2022-08-09T13:27:40.121Z,22.30
2022-08-09T13:31:53.657Z,22.40
2022-08-09T13:33:06.757Z,22.60
2022-08-09T13:36:38.449Z,22.60
2022-08-09T13:38:54.631Z,22.50
2022-08-09T13:41:52.333Z,23.00
2022-08-09T13:44:09.024Z,22.00
2022-08-09T13:47:16.757Z,22.00
2022-08-09T13:49:37.556Z,21.90
2022-08-09T13:52:09.362Z,22.10
2022-08-09T13:54:43.143Z,22.00
2022-08-09T13:57:36.353Z,22.10
2022-08-09T14:00:14.009Z,22.20
2022-08-09T14:03:03.809Z,22.20
2022-08-09T14:05:58.174Z,22.20
2022-08-09T14:08:23.107Z,22.30
2022-08-09T14:10:52.903Z,22.30
2022-08-09T14:14:14.877Z,22.40
2022-08-09T14:16:15.860Z,22.40
2022-08-09T14:18:50.281Z,22.40
2022-08-09T14:21:22.262Z,22.40
2022-08-09T14:23:54.260Z,22.40
2022-08-09T14:26:32.670Z,22.40
2022-08-09T14:29:08.364Z,22.20
2022-08-09T14:31:54.011Z,22.00
2022-08-09T14:34:31.113Z,22.00
2022-08-09T14:37:06.791Z,22.20
2022-08-09T14:39:46.238Z,22.10
2022-08-09T14:42:31.781Z,22.40
2022-08-09T14:46:39.965Z,22.40
2022-08-09T14:47:58.869Z,22.50
2022-08-09T14:50:32.659Z,22.40
2022-08-09T14:53:02.016Z,22.50
2022-08-09T14:55:32.322Z,22.50
2022-08-09T14:58:02.938Z,22.50
2022-08-09T15:00:33.336Z,22.60
2022-08-09T15:03:01.852Z,22.70
2022-08-09T15:05:31.880Z,22.70
2022-08-09T15:07:58.919Z,22.80
2022-08-09T15:10:31.977Z,22.70
2022-08-09T15:13:01.537Z,22.80
2022-08-09T15:15:30.219Z,22.80
2022-08-09T15:18:03.920Z,22.90
2022-08-09T15:21:55.998Z,22.90
2022-08-09T15:24:09.250Z,23.00
2022-08-09T15:26:09.204Z,22.90
2022-08-09T15:28:54.931Z,23.00
2022-08-09T15:31:22.362Z,23.10
2022-08-09T15:34:33.082Z,23.00
2022-08-09T15:37:01.177Z,23.20
2022-08-09T15:39:34.772Z,23.10
2022-08-09T15:42:18.822Z,23.30
2022-08-09T15:44:46.377Z,23.30
2022-08-09T15:47:13.907Z,23.30
2022-08-09T15:49:42.026Z,23.20
2022-08-09T15:52:28.155Z,23.20
2022-08-09T15:54:55.256Z,23.20
2022-08-09T15:57:35.713Z,23.30
2022-08-09T16:00:17.033Z,23.50
2022-08-09T16:02:56.060Z,23.40
2022-08-09T16:05:53.539Z,23.40
2022-08-09T16:08:29.529Z,23.40
2022-08-09T16:10:58.846Z,23.40
2022-08-09T16:14:04.191Z,23.60
2022-08-09T16:16:17.446Z,23.70
2022-08-09T16:18:47.315Z,23.90
2022-08-09T16:21:17.050Z,24.80
2022-08-09T16:23:54.630Z,24.80
2022-08-09T16:26:33.742Z,24.60
2022-08-09T16:29:12.452Z,24.50
2022-08-09T16:32:18.617Z,24.30
2022-08-09T16:34:53.586Z,24.30
2022-08-09T16:37:55.710Z,24.30
2022-08-09T16:40:11.895Z,24.30
2022-08-09T16:42:45.159Z,24.30
2022-08-09T16:45:16.745Z,24.30
2022-08-09T16:48:38.092Z,24.30
2022-08-09T16:50:34.207Z,24.40
2022-08-09T16:53:02.510Z,24.20
2022-08-09T16:55:31.422Z,24.30
2022-08-09T16:58:18.793Z,24.40
2022-08-09T17:00:49.127Z,24.40
2022-08-09T17:03:21.787Z,24.50
2022-08-09T17:06:08.442Z,24.40
2022-08-09T17:09:01.023Z,24.50
2022-08-09T17:11:40.854Z,24.60
2022-08-09T17:14:25.701Z,24.50
2022-08-09T17:16:59.725Z,24.40
2022-08-09T17:20:09.117Z,24.40
2022-08-09T17:22:25.130Z,24.60
2022-08-09T17:25:02.819Z,24.70
2022-08-09T17:27:33.998Z,24.90
2022-08-09T17:30:04.853Z,24.80
2022-08-09T17:32:37.786Z,24.90
2022-08-09T17:35:11.875Z,24.90
2022-08-09T17:38:07.605Z,25.00
2022-08-09T17:40:29.500Z,25.20
2022-08-09T17:42:59.702Z,25.30
2022-08-09T17:46:04.284Z,25.40
2022-08-09T17:48:29.141Z,25.50
2022-08-09T17:51:01.717Z,25.70
2022-08-09T17:53:42.989Z,25.70
2022-08-09T17:56:14.962Z,25.80
2022-08-09T17:58:45.476Z,25.80
2022-08-09T18:01:22.523Z,25.90
2022-08-09T18:03:52.516Z,25.90
2022-08-09T18:06:31.227Z,26.10
2022-08-09T18:09:03.337Z,26.30
2022-08-09T18:12:05.035Z,26.60
2022-08-09T18:14:22.197Z,26.50
2022-08-09T18:16:50.421Z,26.50
2022-08-09T18:20:56.142Z,26.60
2022-08-09T18:22:13.285Z,26.80
2022-08-09T18:24:45.783Z,26.80
2022-08-09T18:27:59.794Z,27.00
2022-08-09T18:30:40.109Z,27.40
2022-08-09T18:32:54.545Z,27.50
2022-08-09T18:35:59.311Z,27.70
2022-08-09T18:38:10.279Z,27.90
2022-08-09T18:40:40.242Z,28.50
2022-08-09T18:43:08.833Z,28.90
2022-08-09T18:46:47.834Z,29.10
2022-08-09T18:48:25.551Z,29.20
2022-08-09T18:50:58.010Z,29.00
2022-08-09T18:53:26.816Z,28.80
2022-08-09T18:56:11.258Z,28.60
2022-08-09T18:58:38.963Z,28.70
2022-08-09T19:01:07.503Z,28.90
2022-08-09T19:03:54.711Z,29.10
2022-08-09T19:06:23.252Z,29.30
2022-08-09T19:09:02.830Z,29.40
2022-08-09T19:11:35.198Z,29.50
2022-08-09T19:14:06.379Z,29.60
2022-08-09T19:16:38.074Z,29.60
2022-08-09T19:19:25.594Z,29.80
2022-08-09T19:22:04.384Z,29.90
2022-08-09T19:24:38.758Z,30.00
2022-08-09T19:27:22.661Z,30.10
2022-08-09T19:30:22.373Z,30.20
2022-08-09T19:32:37.367Z,30.20
2022-08-09T19:35:06.947Z,30.30
2022-08-09T19:37:52.721Z,30.50
2022-08-09T19:40:23.007Z,30.50
2022-08-09T19:42:52.590Z,30.80
2022-08-09T19:45:19.648Z,30.90
2022-08-09T19:47:47.874Z,30.90
2022-08-09T19:50:49.550Z,31.00
2022-08-09T19:53:04.522Z,31.00
2022-08-09T19:56:02.062Z,31.20
2022-08-09T19:58:29.955Z,31.30
2022-08-09T20:00:58.094Z,31.40
2022-08-09T20:04:11.625Z,31.60
2022-08-09T20:06:23.938Z,31.70
2022-08-09T20:08:57.578Z,31.80
2022-08-09T20:11:33.886Z,31.80
2022-08-09T20:14:15.333Z,31.90
2022-08-09T20:16:53.466Z,32.00
2022-08-09T20:19:47.669Z,32.20
2022-08-09T20:22:14.605Z,32.70
2022-08-09T20:24:42.640Z,32.60
2022-08-09T20:27:23.421Z,32.80
2022-08-09T20:29:51.840Z,32.80
2022-08-09T20:32:40.255Z,32.80
2022-08-09T20:35:07.235Z,32.80
2022-08-09T20:38:19.470Z,32.90
2022-08-09T20:40:26.931Z,32.90
2022-08-09T20:43:00.231Z,33.10
2022-08-09T20:46:01.242Z,33.10
2022-08-09T20:48:29.001Z,33.20
2022-08-09T20:51:01.034Z,33.30
2022-08-09T20:53:37.058Z,33.50
2022-08-09T20:56:08.665Z,33.40
2022-08-09T20:58:36.479Z,33.60
2022-08-09T21:01:33.206Z,33.60
2022-08-09T21:05:48.407Z,33.70
2022-08-09T21:06:41.566Z,33.90
2022-08-09T21:09:13.458Z,34.00
2022-08-09T21:14:30.794Z,34.00
2022-08-09T21:16:59.397Z,34.20
2022-08-09T21:20:17.645Z,34.30
2022-08-09T21:22:36.256Z,34.60
2022-08-09T21:25:25.438Z,34.50
2022-08-09T21:27:53.317Z,34.60
2022-08-09T21:30:23.119Z,34.60
2022-08-09T21:32:53.533Z,34.70
2022-08-09T21:35:21.572Z,34.60
2022-08-09T21:37:59.084Z,34.70
2022-08-09T21:40:30.688Z,34.90
2022-08-09T21:43:01.033Z,34.90
2022-08-09T21:45:28.464Z,35.00
2022-08-09T21:47:59.749Z,35.10
2022-08-09T21:50:36.125Z,35.30
2022-08-09T21:53:06.984Z,35.60
2022-08-09T21:55:51.158Z,35.60
2022-08-09T21:58:39.063Z,35.60
2022-08-09T22:01:11.917Z,36.20
2022-08-09T22:03:59.704Z,35.90
2022-08-09T22:06:27.616Z,35.90
2022-08-09T22:08:56.820Z,35.90
2022-08-09T22:12:04.356Z,36.10
2022-08-09T22:14:14.811Z,36.40
2022-08-09T22:16:42.632Z,36.50
2022-08-09T22:19:58.003Z,36.60
2022-08-09T22:21:59.942Z,36.60
2022-08-09T22:24:27.719Z,36.70
2022-08-09T22:26:55.009Z,36.60
2022-08-09T22:29:27.046Z,36.50
2022-08-09T22:32:00.779Z,36.70
2022-08-09T22:34:28.958Z,36.90
2022-08-09T22:36:57.584Z,37.10
2022-08-09T22:39:55.629Z,37.40
2022-08-09T22:42:22.470Z,37.40
2022-08-09T22:48:05.967Z,37.20
2022-08-09T22:48:10.310Z,37.40
2022-08-09T22:50:31.435Z,37.70
2022-08-09T22:53:03.602Z,37.80
2022-08-09T22:56:06.108Z,37.90
2022-08-09T22:58:30.496Z,38.00
2022-08-09T23:01:03.044Z,38.30
2022-08-09T23:04:03.622Z,38.30
2022-08-09T23:06:29.949Z,38.30
2022-08-09T23:09:07.043Z,38.40
2022-08-09T23:11:34.203Z,38.40
2022-08-09T23:14:03.037Z,38.40
2022-08-09T23:16:31.403Z,38.50
2022-08-09T23:18:58.513Z,38.50
2022-08-09T23:21:30.076Z,38.60
2022-08-09T23:24:06.278Z,38.70
2022-08-09T23:26:36.083Z,38.80
2022-08-09T23:29:04.410Z,38.80
2022-08-09T23:31:31.576Z,38.80
2022-08-09T23:33:59.836Z,38.90
2022-08-09T23:36:28.509Z,39.00
2022-08-09T23:38:57.234Z,38.90
2022-08-09T23:41:28.750Z,39.30
2022-08-09T23:44:01.430Z,39.30
2022-08-09T23:46:33.526Z,39.30
2022-08-09T23:49:01.130Z,39.40
2022-08-09T23:51:28.641Z,39.50
2022-08-09T23:54:01.848Z,39.60
2022-08-09T23:56:52.088Z,39.70
2022-08-09T23:59:20.758Z,39.80
